sensor_id;sensor_type;location;lat;lon;timestamp;P1;durP1;ratioP1;P2;durP2;ratioP2
38318;SDS011;24121;53.536;10.224;2022-09-09T00:04:05;96.40;;;31.13;;
38318;SDS011;24121;53.536;10.224;2022-09-09T00:07:03;100.68;;;28.77;;
38318;SDS011;24121;53.536;10.224;2022-09-09T00:09:35;68.40;;;28.03;;
38318;SDS011;24121;53.536;10.224;2022-09-09T00:12:11;228.63;;;47.42;;
38318;SDS011;24121;53.536;10.224;2022-09-09T00:14:41;115.63;;;33.83;;
38318;SDS011;24121;53.536;10.224;2022-09-09T00:17:31;128.55;;;35.22;;
38318;SDS011;24121;53.536;10.224;2022-09-09T00:20:02;273.45;;;43.65;;
38318;SDS011;24121;53.536;10.224;2022-09-09T00:22:52;229.30;;;42.10;;
38318;SDS011;24121;53.536;10.224;2022-09-09T00:25:27;224.10;;;42.17;;
38318;SDS011;24121;53.536;10.224;2022-09-09T00:27:56;161.57;;;39.22;;
38318;SDS011;24121;53.536;10.224;2022-09-09T00:32:49;245.85;;;49.28;;
38318;SDS011;24121;53.536;10.224;2022-09-09T00:35:32;74.20;;;30.20;;
38318;SDS011;24121;53.536;10.224;2022-09-09T00:38:01;263.60;;;47.72;;
38318;SDS011;24121;53.536;10.224;2022-09-09T00:40:50;271.38;;;48.75;;
38318;SDS011;24121;53.536;10.224;2022-09-09T00:43:21;151.20;;;36.50;;
38318;SDS011;24121;53.536;10.224;2022-09-09T00:46:00;184.85;;;39.60;;
38318;SDS011;24121;53.536;10.224;2022-09-09T00:54:40;195.93;;;41.33;;
38318;SDS011;24121;53.536;10.224;2022-09-09T00:57:13;111.93;;;36.08;;
38318;SDS011;24121;53.536;10.224;2022-09-09T00:59:57;55.47;;;29.38;;
38318;SDS011;24121;53.536;10.224;2022-09-09T01:05:12;183.65;;;41.80;;
38318;SDS011;24121;53.536;10.224;2022-09-09T01:07:44;66.00;;;29.45;;
38318;SDS011;24121;53.536;10.224;2022-09-09T01:10:15;69.63;;;32.47;;
38318;SDS011;24121;53.536;10.224;2022-09-09T01:12:50;81.90;;;33.83;;
38318;SDS011;24121;53.536;10.224;2022-09-09T01:15:27;184.57;;;42.95;;
38318;SDS011;24121;53.536;10.224;2022-09-09T01:20:31;126.57;;;37.17;;
38318;SDS011;24121;53.536;10.224;2022-09-09T01:28:48;275.17;;;52.35;;
38318;SDS011;24121;53.536;10.224;2022-09-09T01:31:18;65.22;;;34.05;;
38318;SDS011;24121;53.536;10.224;2022-09-09T01:33:48;63.95;;;31.58;;
38318;SDS011;24121;53.536;10.224;2022-09-09T01:38:58;82.68;;;34.17;;
38318;SDS011;24121;53.536;10.224;2022-09-09T01:41:23;181.95;;;45.28;;
38318;SDS011;24121;53.536;10.224;2022-09-09T01:43:49;87.95;;;36.08;;
38318;SDS011;24121;53.536;10.224;2022-09-09T01:46:16;93.85;;;35.42;;
38318;SDS011;24121;53.536;10.224;2022-09-09T01:48:42;81.20;;;33.92;;
38318;SDS011;24121;53.536;10.224;2022-09-09T01:51:08;57.00;;;27.92;;
38318;SDS011;24121;53.536;10.224;2022-09-09T01:53:35;192.68;;;47.40;;
38318;SDS011;24121;53.536;10.224;2022-09-09T01:56:07;97.55;;;37.08;;
38318;SDS011;24121;53.536;10.224;2022-09-09T02:01:14;200.70;;;46.30;;
38318;SDS011;24121;53.536;10.224;2022-09-09T02:03:44;242.98;;;50.80;;
38318;SDS011;24121;53.536;10.224;2022-09-09T02:06:14;50.20;;;29.38;;
38318;SDS011;24121;53.536;10.224;2022-09-09T02:08:50;262.13;;;53.65;;
38318;SDS011;24121;53.536;10.224;2022-09-09T02:11:18;209.65;;;46.78;;
38318;SDS011;24121;53.536;10.224;2022-09-09T02:13:48;65.63;;;33.03;;
38318;SDS011;24121;53.536;10.224;2022-09-09T02:16:18;157.73;;;42.50;;
38318;SDS011;24121;53.536;10.224;2022-09-09T02:18:51;88.97;;;32.78;;
38318;SDS011;24121;53.536;10.224;2022-09-09T02:21:18;53.38;;;29.00;;
38318;SDS011;24121;53.536;10.224;2022-09-09T02:23:44;60.80;;;28.92;;
38318;SDS011;24121;53.536;10.224;2022-09-09T02:26:12;62.03;;;29.63;;
38318;SDS011;24121;53.536;10.224;2022-09-09T02:28:44;150.38;;;41.20;;
38318;SDS011;24121;53.536;10.224;2022-09-09T02:31:09;112.20;;;36.25;;
38318;SDS011;24121;53.536;10.224;2022-09-09T02:33:41;54.78;;;29.33;;
38318;SDS011;24121;53.536;10.224;2022-09-09T02:36:09;47.40;;;28.23;;
38318;SDS011;24121;53.536;10.224;2022-09-09T02:38:37;53.83;;;28.27;;
38318;SDS011;24121;53.536;10.224;2022-09-09T02:41:05;68.47;;;31.05;;
38318;SDS011;24121;53.536;10.224;2022-09-09T02:43:34;115.85;;;37.10;;
38318;SDS011;24121;53.536;10.224;2022-09-09T02:46:08;47.75;;;26.02;;
38318;SDS011;24121;53.536;10.224;2022-09-09T02:49:02;105.38;;;34.67;;
38318;SDS011;24121;53.536;10.224;2022-09-09T02:51:44;121.97;;;37.00;;
38318;SDS011;24121;53.536;10.224;2022-09-09T02:54:22;43.80;;;25.73;;
38318;SDS011;24121;53.536;10.224;2022-09-09T02:56:53;37.50;;;24.27;;
38318;SDS011;24121;53.536;10.224;2022-09-09T02:59:19;255.73;;;47.90;;
38318;SDS011;24121;53.536;10.224;2022-09-09T03:01:46;53.40;;;26.33;;
38318;SDS011;24121;53.536;10.224;2022-09-09T03:04:11;81.15;;;31.02;;
38318;SDS011;24121;53.536;10.224;2022-09-09T03:06:37;56.95;;;26.98;;
38318;SDS011;24121;53.536;10.224;2022-09-09T03:09:02;262.17;;;51.33;;
38318;SDS011;24121;53.536;10.224;2022-09-09T03:11:28;80.53;;;31.33;;
38318;SDS011;24121;53.536;10.224;2022-09-09T03:13:54;50.28;;;26.13;;
38318;SDS011;24121;53.536;10.224;2022-09-09T03:16:21;55.78;;;28.80;;
38318;SDS011;24121;53.536;10.224;2022-09-09T03:18:46;215.25;;;47.08;;
38318;SDS011;24121;53.536;10.224;2022-09-09T03:21:12;33.35;;;23.30;;
38318;SDS011;24121;53.536;10.224;2022-09-09T03:23:37;65.55;;;31.00;;
38318;SDS011;24121;53.536;10.224;2022-09-09T03:26:02;152.63;;;38.05;;
38318;SDS011;24121;53.536;10.224;2022-09-09T03:28:28;248.63;;;48.20;;
38318;SDS011;24121;53.536;10.224;2022-09-09T03:31:02;86.20;;;32.05;;
38318;SDS011;24121;53.536;10.224;2022-09-09T03:33:29;42.92;;;26.70;;
38318;SDS011;24121;53.536;10.224;2022-09-09T03:35:55;112.03;;;35.78;;
38318;SDS011;24121;53.536;10.224;2022-09-09T03:38:22;36.95;;;25.38;;
38318;SDS011;24121;53.536;10.224;2022-09-09T03:40:51;36.37;;;25.03;;
38318;SDS011;24121;53.536;10.224;2022-09-09T03:43:21;33.85;;;23.85;;
38318;SDS011;24121;53.536;10.224;2022-09-09T03:45:46;41.15;;;25.45;;
38318;SDS011;24121;53.536;10.224;2022-09-09T03:48:12;38.17;;;25.95;;
38318;SDS011;24121;53.536;10.224;2022-09-09T03:50:38;110.90;;;34.58;;
38318;SDS011;24121;53.536;10.224;2022-09-09T03:53:03;132.88;;;37.65;;
38318;SDS011;24121;53.536;10.224;2022-09-09T03:55:30;95.03;;;32.90;;
38318;SDS011;24121;53.536;10.224;2022-09-09T03:57:56;68.95;;;28.70;;
38318;SDS011;24121;53.536;10.224;2022-09-09T04:00:21;112.00;;;36.03;;
38318;SDS011;24121;53.536;10.224;2022-09-09T04:02:46;162.25;;;41.10;;
38318;SDS011;24121;53.536;10.224;2022-09-09T04:05:12;88.38;;;31.10;;
38318;SDS011;24121;53.536;10.224;2022-09-09T04:07:38;65.25;;;27.88;;
38318;SDS011;24121;53.536;10.224;2022-09-09T04:10:04;59.88;;;28.17;;
38318;SDS011;24121;53.536;10.224;2022-09-09T04:12:30;78.28;;;29.17;;
38318;SDS011;24121;53.536;10.224;2022-09-09T04:14:55;49.65;;;26.60;;
38318;SDS011;24121;53.536;10.224;2022-09-09T04:17:20;38.58;;;23.20;;
38318;SDS011;24121;53.536;10.224;2022-09-09T04:19:45;44.83;;;25.00;;
38318;SDS011;24121;53.536;10.224;2022-09-09T04:22:11;36.50;;;23.35;;
38318;SDS011;24121;53.536;10.224;2022-09-09T04:24:36;26.98;;;21.42;;
38318;SDS011;24121;53.536;10.224;2022-09-09T04:27:02;41.45;;;23.35;;
38318;SDS011;24121;53.536;10.224;2022-09-09T04:29:27;50.53;;;24.88;;
38318;SDS011;24121;53.536;10.224;2022-09-09T04:31:52;82.82;;;29.50;;
38318;SDS011;24121;53.536;10.224;2022-09-09T04:34:18;65.20;;;28.75;;
38318;SDS011;24121;53.536;10.224;2022-09-09T04:36:43;50.72;;;24.00;;
38318;SDS011;24121;53.536;10.224;2022-09-09T04:39:08;27.90;;;19.13;;
38318;SDS011;24121;53.536;10.224;2022-09-09T04:41:34;91.32;;;28.85;;
38318;SDS011;24121;53.536;10.224;2022-09-09T04:43:59;151.20;;;35.97;;
38318;SDS011;24121;53.536;10.224;2022-09-09T04:46:25;25.20;;;18.85;;
38318;SDS011;24121;53.536;10.224;2022-09-09T04:48:51;105.07;;;31.15;;
38318;SDS011;24121;53.536;10.224;2022-09-09T04:51:17;96.60;;;30.63;;
38318;SDS011;24121;53.536;10.224;2022-09-09T04:53:43;39.15;;;22.10;;
38318;SDS011;24121;53.536;10.224;2022-09-09T04:56:12;27.48;;;18.65;;
38318;SDS011;24121;53.536;10.224;2022-09-09T04:58:39;60.08;;;25.13;;
38318;SDS011;24121;53.536;10.224;2022-09-09T05:01:07;69.80;;;25.98;;
38318;SDS011;24121;53.536;10.224;2022-09-09T05:03:36;46.47;;;20.30;;
38318;SDS011;24121;53.536;10.224;2022-09-09T05:06:09;40.25;;;22.08;;
38318;SDS011;24121;53.536;10.224;2022-09-09T05:08:39;27.25;;;18.85;;
38318;SDS011;24121;53.536;10.224;2022-09-09T05:11:23;51.10;;;23.70;;
38318;SDS011;24121;53.536;10.224;2022-09-09T05:13:53;46.97;;;22.45;;
38318;SDS011;24121;53.536;10.224;2022-09-09T05:16:18;37.88;;;20.30;;
38318;SDS011;24121;53.536;10.224;2022-09-09T05:18:44;40.20;;;21.17;;
38318;SDS011;24121;53.536;10.224;2022-09-09T05:21:11;99.93;;;30.55;;
38318;SDS011;24121;53.536;10.224;2022-09-09T05:23:37;65.32;;;24.08;;
38318;SDS011;24121;53.536;10.224;2022-09-09T05:26:03;27.33;;;18.05;;
38318;SDS011;24121;53.536;10.224;2022-09-09T05:28:29;23.48;;;15.38;;
38318;SDS011;24121;53.536;10.224;2022-09-09T05:31:02;24.08;;;16.73;;
38318;SDS011;24121;53.536;10.224;2022-09-09T05:33:30;29.30;;;17.23;;
38318;SDS011;24121;53.536;10.224;2022-09-09T05:35:56;22.48;;;15.43;;
38318;SDS011;24121;53.536;10.224;2022-09-09T05:38:26;20.55;;;15.13;;
38318;SDS011;24121;53.536;10.224;2022-09-09T05:40:52;36.30;;;19.88;;
38318;SDS011;24121;53.536;10.224;2022-09-09T05:43:18;49.40;;;20.42;;
38318;SDS011;24121;53.536;10.224;2022-09-09T05:45:47;51.10;;;21.60;;
38318;SDS011;24121;53.536;10.224;2022-09-09T05:48:13;67.10;;;25.40;;
38318;SDS011;24121;53.536;10.224;2022-09-09T05:50:42;20.88;;;15.77;;
38318;SDS011;24121;53.536;10.224;2022-09-09T05:53:07;51.58;;;19.73;;
38318;SDS011;24121;53.536;10.224;2022-09-09T05:55:33;34.83;;;18.60;;
38318;SDS011;24121;53.536;10.224;2022-09-09T05:57:59;64.30;;;25.85;;
38318;SDS011;24121;53.536;10.224;2022-09-09T06:00:24;36.72;;;17.90;;
38318;SDS011;24121;53.536;10.224;2022-09-09T06:02:51;39.13;;;19.27;;
38318;SDS011;24121;53.536;10.224;2022-09-09T06:05:17;23.58;;;15.68;;
38318;SDS011;24121;53.536;10.224;2022-09-09T06:07:43;25.73;;;15.90;;
38318;SDS011;24121;53.536;10.224;2022-09-09T06:10:09;15.38;;;12.48;;
38318;SDS011;24121;53.536;10.224;2022-09-09T06:12:35;17.15;;;13.13;;
38318;SDS011;24121;53.536;10.224;2022-09-09T06:15:00;23.98;;;15.00;;
38318;SDS011;24121;53.536;10.224;2022-09-09T06:17:26;15.80;;;12.82;;
38318;SDS011;24121;53.536;10.224;2022-09-09T06:19:51;12.88;;;10.73;;
38318;SDS011;24121;53.536;10.224;2022-09-09T06:22:17;12.93;;;10.20;;
38318;SDS011;24121;53.536;10.224;2022-09-09T06:24:42;57.17;;;20.75;;
38318;SDS011;24121;53.536;10.224;2022-09-09T06:27:07;38.60;;;18.70;;
38318;SDS011;24121;53.536;10.224;2022-09-09T06:29:33;17.38;;;12.70;;
38318;SDS011;24121;53.536;10.224;2022-09-09T06:31:58;31.77;;;17.30;;
38318;SDS011;24121;53.536;10.224;2022-09-09T06:34:23;13.32;;;10.88;;
38318;SDS011;24121;53.536;10.224;2022-09-09T06:36:49;15.40;;;10.82;;
38318;SDS011;24121;53.536;10.224;2022-09-09T06:39:15;30.23;;;14.30;;
38318;SDS011;24121;53.536;10.224;2022-09-09T06:41:41;24.02;;;14.52;;
38318;SDS011;24121;53.536;10.224;2022-09-09T06:44:07;30.63;;;14.68;;
38318;SDS011;24121;53.536;10.224;2022-09-09T06:46:32;36.72;;;16.20;;
38318;SDS011;24121;53.536;10.224;2022-09-09T06:48:58;27.33;;;16.00;;
38318;SDS011;24121;53.536;10.224;2022-09-09T06:51:31;23.05;;;13.15;;
38318;SDS011;24121;53.536;10.224;2022-09-09T06:53:59;13.93;;;10.38;;
38318;SDS011;24121;53.536;10.224;2022-09-09T06:59:00;23.80;;;12.23;;
38318;SDS011;24121;53.536;10.224;2022-09-09T07:01:32;34.55;;;17.17;;
38318;SDS011;24121;53.536;10.224;2022-09-09T07:03:59;31.52;;;15.07;;
38318;SDS011;24121;53.536;10.224;2022-09-09T07:06:25;15.10;;;11.45;;
38318;SDS011;24121;53.536;10.224;2022-09-09T07:08:52;18.92;;;11.95;;
38318;SDS011;24121;53.536;10.224;2022-09-09T07:11:20;16.67;;;11.52;;
38318;SDS011;24121;53.536;10.224;2022-09-09T07:13:46;21.02;;;14.25;;
38318;SDS011;24121;53.536;10.224;2022-09-09T07:16:13;44.33;;;16.73;;
38318;SDS011;24121;53.536;10.224;2022-09-09T07:18:39;16.60;;;10.27;;
38318;SDS011;24121;53.536;10.224;2022-09-09T07:21:06;20.00;;;12.88;;
38318;SDS011;24121;53.536;10.224;2022-09-09T07:23:33;12.65;;;9.90;;
38318;SDS011;24121;53.536;10.224;2022-09-09T07:26:00;24.85;;;14.07;;
38318;SDS011;24121;53.536;10.224;2022-09-09T07:28:25;9.88;;;8.88;;
38318;SDS011;24121;53.536;10.224;2022-09-09T07:30:53;12.70;;;10.10;;
38318;SDS011;24121;53.536;10.224;2022-09-09T07:33:19;7.55;;;6.75;;
38318;SDS011;24121;53.536;10.224;2022-09-09T07:35:45;20.95;;;11.95;;
38318;SDS011;24121;53.536;10.224;2022-09-09T07:38:10;16.58;;;10.35;;
38318;SDS011;24121;53.536;10.224;2022-09-09T07:40:36;9.05;;;8.00;;
38318;SDS011;24121;53.536;10.224;2022-09-09T07:43:01;12.55;;;8.73;;
38318;SDS011;24121;53.536;10.224;2022-09-09T07:45:26;14.15;;;8.32;;
38318;SDS011;24121;53.536;10.224;2022-09-09T07:47:53;7.65;;;6.15;;
38318;SDS011;24121;53.536;10.224;2022-09-09T07:50:20;11.13;;;8.02;;
38318;SDS011;24121;53.536;10.224;2022-09-09T07:52:45;20.00;;;9.60;;
38318;SDS011;24121;53.536;10.224;2022-09-09T07:55:10;14.20;;;7.85;;
38318;SDS011;24121;53.536;10.224;2022-09-09T07:57:36;13.98;;;8.75;;
38318;SDS011;24121;53.536;10.224;2022-09-09T08:00:02;15.48;;;9.13;;
38318;SDS011;24121;53.536;10.224;2022-09-09T08:02:28;10.70;;;8.48;;
38318;SDS011;24121;53.536;10.224;2022-09-09T08:04:54;6.80;;;5.90;;
38318;SDS011;24121;53.536;10.224;2022-09-09T08:07:19;13.40;;;9.02;;
38318;SDS011;24121;53.536;10.224;2022-09-09T08:09:46;12.80;;;6.95;;
38318;SDS011;24121;53.536;10.224;2022-09-09T08:12:11;11.48;;;6.43;;
38318;SDS011;24121;53.536;10.224;2022-09-09T08:14:38;8.98;;;6.95;;
38318;SDS011;24121;53.536;10.224;2022-09-09T08:17:04;9.48;;;5.93;;
38318;SDS011;24121;53.536;10.224;2022-09-09T08:19:29;16.42;;;8.70;;
38318;SDS011;24121;53.536;10.224;2022-09-09T08:21:55;11.90;;;8.90;;
38318;SDS011;24121;53.536;10.224;2022-09-09T08:24:20;7.68;;;5.78;;
38318;SDS011;24121;53.536;10.224;2022-09-09T08:26:46;12.23;;;8.38;;
38318;SDS011;24121;53.536;10.224;2022-09-09T08:29:14;8.60;;;7.30;;
38318;SDS011;24121;53.536;10.224;2022-09-09T08:31:41;9.95;;;6.00;;
38318;SDS011;24121;53.536;10.224;2022-09-09T08:34:10;8.45;;;6.57;;
38318;SDS011;24121;53.536;10.224;2022-09-09T08:36:37;13.05;;;8.75;;
38318;SDS011;24121;53.536;10.224;2022-09-09T08:39:06;13.87;;;8.70;;
38318;SDS011;24121;53.536;10.224;2022-09-09T08:53:02;10.52;;;6.78;;
38318;SDS011;24121;53.536;10.224;2022-09-09T08:58:18;10.52;;;6.80;;
38318;SDS011;24121;53.536;10.224;2022-09-09T09:00:50;10.52;;;6.35;;
38318;SDS011;24121;53.536;10.224;2022-09-09T09:03:34;8.38;;;5.60;;
38318;SDS011;24121;53.536;10.224;2022-09-09T09:14:00;7.22;;;4.15;;
38318;SDS011;24121;53.536;10.224;2022-09-09T09:16:33;6.43;;;4.38;;
38318;SDS011;24121;53.536;10.224;2022-09-09T09:19:00;8.05;;;4.35;;
38318;SDS011;24121;53.536;10.224;2022-09-09T09:21:41;8.63;;;3.90;;
38318;SDS011;24121;53.536;10.224;2022-09-09T09:24:30;6.32;;;3.60;;
38318;SDS011;24121;53.536;10.224;2022-09-09T09:26:58;7.07;;;3.58;;
38318;SDS011;24121;53.536;10.224;2022-09-09T09:29:26;6.22;;;3.97;;
38318;SDS011;24121;53.536;10.224;2022-09-09T09:31:52;5.38;;;3.92;;
38318;SDS011;24121;53.536;10.224;2022-09-09T09:34:21;9.17;;;3.30;;
38318;SDS011;24121;53.536;10.224;2022-09-09T09:36:55;5.07;;;2.72;;
38318;SDS011;24121;53.536;10.224;2022-09-09T09:39:28;4.93;;;2.75;;
38318;SDS011;24121;53.536;10.224;2022-09-09T09:41:55;4.13;;;2.53;;
38318;SDS011;24121;53.536;10.224;2022-09-09T09:44:22;6.28;;;3.55;;
38318;SDS011;24121;53.536;10.224;2022-09-09T09:49:33;5.63;;;2.28;;
38318;SDS011;24121;53.536;10.224;2022-09-09T09:52:02;7.30;;;3.08;;
38318;SDS011;24121;53.536;10.224;2022-09-09T09:54:29;5.25;;;2.80;;
38318;SDS011;24121;53.536;10.224;2022-09-09T09:56:56;5.25;;;3.22;;
38318;SDS011;24121;53.536;10.224;2022-09-09T10:04:27;4.65;;;3.10;;
38318;SDS011;24121;53.536;10.224;2022-09-09T10:06:53;5.28;;;2.50;;
38318;SDS011;24121;53.536;10.224;2022-09-09T10:12:27;2.80;;;2.55;;
38318;SDS011;24121;53.536;10.224;2022-09-09T10:14:48;6.00;;;2.50;;
38318;SDS011;24121;53.536;10.224;2022-09-09T10:17:36;6.55;;;3.95;;
38318;SDS011;24121;53.536;10.224;2022-09-09T10:22:35;5.27;;;2.50;;
38318;SDS011;24121;53.536;10.224;2022-09-09T10:36:04;6.07;;;3.17;;
38318;SDS011;24121;53.536;10.224;2022-09-09T10:38:45;6.13;;;3.60;;
38318;SDS011;24121;53.536;10.224;2022-09-09T10:46:51;4.95;;;2.55;;
38318;SDS011;24121;53.536;10.224;2022-09-09T10:51:57;5.13;;;2.78;;
38318;SDS011;24121;53.536;10.224;2022-09-09T10:54:32;3.38;;;2.35;;
38318;SDS011;24121;53.536;10.224;2022-09-09T10:57:14;4.18;;;2.22;;
38318;SDS011;24121;53.536;10.224;2022-09-09T10:59:46;4.30;;;2.80;;
38318;SDS011;24121;53.536;10.224;2022-09-09T11:02:27;3.20;;;2.10;;
38318;SDS011;24121;53.536;10.224;2022-09-09T11:04:55;2.57;;;2.37;;
38318;SDS011;24121;53.536;10.224;2022-09-09T11:10:11;4.20;;;2.42;;
38318;SDS011;24121;53.536;10.224;2022-09-09T11:12:42;5.90;;;3.10;;
38318;SDS011;24121;53.536;10.224;2022-09-09T11:15:14;6.70;;;2.30;;
38318;SDS011;24121;53.536;10.224;2022-09-09T11:17:45;3.35;;;2.35;;
38318;SDS011;24121;53.536;10.224;2022-09-09T11:20:14;4.43;;;2.50;;
38318;SDS011;24121;53.536;10.224;2022-09-09T11:30:15;4.35;;;2.20;;
38318;SDS011;24121;53.536;10.224;2022-09-09T11:38:39;2.60;;;1.63;;
38318;SDS011;24121;53.536;10.224;2022-09-09T11:41:10;4.18;;;1.52;;
38318;SDS011;24121;53.536;10.224;2022-09-09T11:43:40;3.88;;;1.55;;
38318;SDS011;24121;53.536;10.224;2022-09-09T11:46:09;3.13;;;1.50;;
38318;SDS011;24121;53.536;10.224;2022-09-09T11:48:36;4.22;;;2.20;;
38318;SDS011;24121;53.536;10.224;2022-09-09T11:51:11;3.80;;;2.10;;
38318;SDS011;24121;53.536;10.224;2022-09-09T11:53:50;3.67;;;1.83;;
38318;SDS011;24121;53.536;10.224;2022-09-09T11:59:00;4.72;;;2.45;;
38318;SDS011;24121;53.536;10.224;2022-09-09T12:01:38;4.00;;;1.98;;
38318;SDS011;24121;53.536;10.224;2022-09-09T12:04:10;3.33;;;1.90;;
38318;SDS011;24121;53.536;10.224;2022-09-09T12:06:49;6.20;;;2.85;;
38318;SDS011;24121;53.536;10.224;2022-09-09T12:09:18;6.45;;;2.70;;
38318;SDS011;24121;53.536;10.224;2022-09-09T12:11:46;4.18;;;2.80;;
38318;SDS011;24121;53.536;10.224;2022-09-09T12:14:22;10.45;;;4.13;;
38318;SDS011;24121;53.536;10.224;2022-09-09T12:16:48;10.40;;;3.85;;
38318;SDS011;24121;53.536;10.224;2022-09-09T12:19:23;10.27;;;4.53;;
38318;SDS011;24121;53.536;10.224;2022-09-09T12:22:09;12.23;;;4.60;;
38318;SDS011;24121;53.536;10.224;2022-09-09T12:24:57;12.63;;;5.75;;
38318;SDS011;24121;53.536;10.224;2022-09-09T12:27:34;11.38;;;6.85;;
38318;SDS011;24121;53.536;10.224;2022-09-09T12:30:07;8.60;;;5.88;;
38318;SDS011;24121;53.536;10.224;2022-09-09T12:32:34;9.52;;;7.20;;
38318;SDS011;24121;53.536;10.224;2022-09-09T12:35:15;12.52;;;8.95;;
38318;SDS011;24121;53.536;10.224;2022-09-09T12:37:50;7.70;;;5.38;;
38318;SDS011;24121;53.536;10.224;2022-09-09T12:42:50;10.15;;;6.20;;
38318;SDS011;24121;53.536;10.224;2022-09-09T12:45:23;7.32;;;5.70;;
38318;SDS011;24121;53.536;10.224;2022-09-09T12:47:51;7.63;;;5.65;;
38318;SDS011;24121;53.536;10.224;2022-09-09T12:50:19;7.25;;;5.45;;
38318;SDS011;24121;53.536;10.224;2022-09-09T12:52:47;6.38;;;5.15;;
38318;SDS011;24121;53.536;10.224;2022-09-09T12:55:17;5.43;;;4.93;;
38318;SDS011;24121;53.536;10.224;2022-09-09T12:57:45;10.30;;;7.95;;
38318;SDS011;24121;53.536;10.224;2022-09-09T13:02:48;7.43;;;5.78;;
38318;SDS011;24121;53.536;10.224;2022-09-09T13:05:21;7.25;;;5.45;;
38318;SDS011;24121;53.536;10.224;2022-09-09T13:07:51;7.28;;;4.30;;
38318;SDS011;24121;53.536;10.224;2022-09-09T13:10:26;9.45;;;5.63;;
38318;SDS011;24121;53.536;10.224;2022-09-09T13:12:54;5.18;;;3.15;;
38318;SDS011;24121;53.536;10.224;2022-09-09T13:15:23;7.15;;;4.90;;
38318;SDS011;24121;53.536;10.224;2022-09-09T13:17:52;6.55;;;5.28;;
38318;SDS011;24121;53.536;10.224;2022-09-09T13:20:20;5.60;;;3.90;;
38318;SDS011;24121;53.536;10.224;2022-09-09T13:22:46;8.15;;;6.05;;
38318;SDS011;24121;53.536;10.224;2022-09-09T13:25:18;11.50;;;6.70;;
38318;SDS011;24121;53.536;10.224;2022-09-09T13:28:20;6.75;;;5.00;;
38318;SDS011;24121;53.536;10.224;2022-09-09T13:30:54;7.40;;;3.58;;
38318;SDS011;24121;53.536;10.224;2022-09-09T13:33:24;7.45;;;4.72;;
38318;SDS011;24121;53.536;10.224;2022-09-09T13:35:59;8.70;;;4.90;;
38318;SDS011;24121;53.536;10.224;2022-09-09T13:38:27;10.88;;;6.30;;
38318;SDS011;24121;53.536;10.224;2022-09-09T13:43:21;8.27;;;4.68;;
38318;SDS011;24121;53.536;10.224;2022-09-09T13:46:58;5.75;;;4.03;;
38318;SDS011;24121;53.536;10.224;2022-09-09T13:49:01;6.00;;;4.78;;
38318;SDS011;24121;53.536;10.224;2022-09-09T13:54:08;11.15;;;6.95;;
38318;SDS011;24121;53.536;10.224;2022-09-09T13:56:35;9.90;;;6.47;;
38318;SDS011;24121;53.536;10.224;2022-09-09T13:59:02;11.38;;;6.53;;
38318;SDS011;24121;53.536;10.224;2022-09-09T14:01:28;9.43;;;6.20;;
38318;SDS011;24121;53.536;10.224;2022-09-09T14:03:54;10.52;;;5.85;;
38318;SDS011;24121;53.536;10.224;2022-09-09T14:06:20;11.63;;;6.95;;
38318;SDS011;24121;53.536;10.224;2022-09-09T14:08:47;13.02;;;8.77;;
38318;SDS011;24121;53.536;10.224;2022-09-09T14:11:12;8.80;;;6.82;;
38318;SDS011;24121;53.536;10.224;2022-09-09T14:13:38;19.33;;;11.18;;
38318;SDS011;24121;53.536;10.224;2022-09-09T14:16:03;14.73;;;9.00;;
38318;SDS011;24121;53.536;10.224;2022-09-09T14:18:29;8.85;;;4.85;;
38318;SDS011;24121;53.536;10.224;2022-09-09T14:20:54;14.27;;;8.30;;
38318;SDS011;24121;53.536;10.224;2022-09-09T14:23:20;13.30;;;8.45;;
38318;SDS011;24121;53.536;10.224;2022-09-09T14:25:47;11.43;;;6.60;;
38318;SDS011;24121;53.536;10.224;2022-09-09T14:28:13;17.65;;;9.27;;
38318;SDS011;24121;53.536;10.224;2022-09-09T14:30:39;10.57;;;5.00;;
38318;SDS011;24121;53.536;10.224;2022-09-09T14:33:05;7.75;;;5.00;;
38318;SDS011;24121;53.536;10.224;2022-09-09T14:35:31;25.73;;;13.20;;
38318;SDS011;24121;53.536;10.224;2022-09-09T14:37:58;20.52;;;10.02;;
38318;SDS011;24121;53.536;10.224;2022-09-09T14:40:23;23.52;;;10.85;;
38318;SDS011;24121;53.536;10.224;2022-09-09T14:42:48;10.88;;;6.57;;
38318;SDS011;24121;53.536;10.224;2022-09-09T14:45:14;17.27;;;8.27;;
38318;SDS011;24121;53.536;10.224;2022-09-09T14:47:39;27.98;;;14.50;;
38318;SDS011;24121;53.536;10.224;2022-09-09T14:50:05;9.75;;;5.57;;
38318;SDS011;24121;53.536;10.224;2022-09-09T14:52:31;13.88;;;5.90;;
38318;SDS011;24121;53.536;10.224;2022-09-09T14:54:56;19.48;;;8.00;;
38318;SDS011;24121;53.536;10.224;2022-09-09T14:57:22;16.13;;;7.70;;
38318;SDS011;24121;53.536;10.224;2022-09-09T14:59:47;12.07;;;6.13;;
38318;SDS011;24121;53.536;10.224;2022-09-09T15:02:14;12.60;;;8.02;;
38318;SDS011;24121;53.536;10.224;2022-09-09T15:04:39;18.08;;;10.70;;
38318;SDS011;24121;53.536;10.224;2022-09-09T15:07:04;26.08;;;11.90;;
38318;SDS011;24121;53.536;10.224;2022-09-09T15:09:30;19.83;;;9.43;;
38318;SDS011;24121;53.536;10.224;2022-09-09T15:11:55;14.43;;;9.38;;
38318;SDS011;24121;53.536;10.224;2022-09-09T15:14:20;16.25;;;8.68;;
38318;SDS011;24121;53.536;10.224;2022-09-09T15:16:46;16.45;;;9.18;;
38318;SDS011;24121;53.536;10.224;2022-09-09T15:19:11;18.50;;;10.20;;
38318;SDS011;24121;53.536;10.224;2022-09-09T15:21:37;15.55;;;8.88;;
38318;SDS011;24121;53.536;10.224;2022-09-09T15:24:03;13.82;;;8.70;;
38318;SDS011;24121;53.536;10.224;2022-09-09T15:26:29;7.38;;;5.13;;
38318;SDS011;24121;53.536;10.224;2022-09-09T15:28:55;12.48;;;8.13;;
38318;SDS011;24121;53.536;10.224;2022-09-09T15:31:24;12.45;;;7.80;;
38318;SDS011;24121;53.536;10.224;2022-09-09T15:36:25;14.40;;;8.57;;
38318;SDS011;24121;53.536;10.224;2022-09-09T15:38:53;9.23;;;7.32;;
38318;SDS011;24121;53.536;10.224;2022-09-09T15:41:20;17.77;;;11.23;;
38318;SDS011;24121;53.536;10.224;2022-09-09T15:43:47;9.60;;;8.57;;
38318;SDS011;24121;53.536;10.224;2022-09-09T15:48:53;16.48;;;10.10;;
38318;SDS011;24121;53.536;10.224;2022-09-09T15:51:20;16.40;;;11.00;;
38318;SDS011;24121;53.536;10.224;2022-09-09T15:53:45;9.43;;;6.55;;
38318;SDS011;24121;53.536;10.224;2022-09-09T15:56:11;53.78;;;20.25;;
38318;SDS011;24121;53.536;10.224;2022-09-09T15:58:36;7.68;;;4.10;;
38318;SDS011;24121;53.536;10.224;2022-09-09T16:01:08;12.90;;;8.85;;
38318;SDS011;24121;53.536;10.224;2022-09-09T16:03:34;9.82;;;6.75;;
38318;SDS011;24121;53.536;10.224;2022-09-09T16:06:04;9.90;;;7.18;;
38318;SDS011;24121;53.536;10.224;2022-09-09T16:08:37;7.93;;;6.13;;
38318;SDS011;24121;53.536;10.224;2022-09-09T16:11:04;14.55;;;7.60;;
38318;SDS011;24121;53.536;10.224;2022-09-09T16:13:34;12.77;;;6.95;;
38318;SDS011;24121;53.536;10.224;2022-09-09T16:16:00;10.10;;;7.10;;
38318;SDS011;24121;53.536;10.224;2022-09-09T16:18:26;10.55;;;5.03;;
38318;SDS011;24121;53.536;10.224;2022-09-09T16:20:55;9.82;;;6.90;;
38318;SDS011;24121;53.536;10.224;2022-09-09T16:23:20;11.48;;;7.47;;
38318;SDS011;24121;53.536;10.224;2022-09-09T16:25:53;6.38;;;4.75;;